createdAt,value
2023-03-29T00:00:14.473Z,31.30
2023-03-29T00:03:04.091Z,31.10
2023-03-29T00:05:35.444Z,38.00
2023-03-29T00:08:04.363Z,41.00
2023-03-29T00:10:32.662Z,38.20
2023-03-29T00:13:00.972Z,42.10
2023-03-29T00:15:28.586Z,55.50
2023-03-29T00:17:56.199Z,103.30
2023-03-29T00:20:23.867Z,94.60
2023-03-29T00:22:51.833Z,72.30
2023-03-29T00:25:19.411Z,54.90
2023-03-29T00:27:47.091Z,56.10
2023-03-29T00:30:15.350Z,60.60
2023-03-29T00:32:43.188Z,60.00
2023-03-29T00:35:11.067Z,60.80
2023-03-29T00:37:38.754Z,55.50
2023-03-29T00:40:09.623Z,51.20
2023-03-29T00:42:37.447Z,55.80
2023-03-29T00:45:19.110Z,62.00
2023-03-29T00:47:49.652Z,61.70
2023-03-29T00:50:25.770Z,61.40
2023-03-29T00:53:02.594Z,46.80
2023-03-29T00:55:35.548Z,54.40
2023-03-29T00:58:05.081Z,57.60
2023-03-29T01:00:35.694Z,47.40
2023-03-29T01:03:09.039Z,93.60
2023-03-29T01:08:08.120Z,56.50
2023-03-29T01:10:43.356Z,56.70
2023-03-29T01:13:13.526Z,49.50
2023-03-29T01:15:42.208Z,53.70
2023-03-29T01:18:09.840Z,47.70
2023-03-29T01:20:50.922Z,47.40
2023-03-29T01:23:18.493Z,48.20
2023-03-29T01:26:17.202Z,44.60
2023-03-29T01:29:07.570Z,41.80
2023-03-29T01:31:38.612Z,47.00
2023-03-29T01:34:11.621Z,45.70
2023-03-29T01:36:51.212Z,43.70
2023-03-29T01:39:19.356Z,31.70
2023-03-29T01:41:48.866Z,40.20
2023-03-29T01:44:43.528Z,97.90
2023-03-29T01:47:12.522Z,54.50
2023-03-29T01:49:48.408Z,48.10
2023-03-29T01:52:19.010Z,45.70
2023-03-29T01:55:00.493Z,37.40
2023-03-29T01:57:28.181Z,39.20
2023-03-29T01:59:55.816Z,35.80
2023-03-29T02:02:24.112Z,37.20
2023-03-29T02:04:53.660Z,39.80
2023-03-29T02:07:24.745Z,39.70
2023-03-29T02:09:52.792Z,43.70
2023-03-29T02:12:20.874Z,40.20
2023-03-29T02:14:48.429Z,43.90
2023-03-29T02:17:20.522Z,37.50
2023-03-29T02:19:50.223Z,41.80
2023-03-29T02:22:33.600Z,91.10
2023-03-29T02:25:01.807Z,51.50
2023-03-29T02:27:29.684Z,42.40
2023-03-29T02:29:57.245Z,45.30
2023-03-29T02:32:26.581Z,42.10
2023-03-29T02:34:58.700Z,40.80
2023-03-29T02:37:26.776Z,33.80
2023-03-29T02:39:54.411Z,34.60
2023-03-29T02:42:22.016Z,35.20
2023-03-29T02:44:50.146Z,38.40
2023-03-29T02:47:32.079Z,40.80
2023-03-29T02:49:59.861Z,35.00
2023-03-29T02:52:33.463Z,37.70
2023-03-29T02:55:03.126Z,37.80
2023-03-29T02:57:32.476Z,38.70
2023-03-29T03:00:00.171Z,45.70
2023-03-29T03:02:27.915Z,111.90
2023-03-29T03:04:55.861Z,68.20
2023-03-29T03:07:24.951Z,52.80
2023-03-29T03:09:52.820Z,60.30
2023-03-29T03:12:20.414Z,52.60
2023-03-29T03:14:48.313Z,55.80
2023-03-29T03:17:15.914Z,81.40
2023-03-29T03:19:43.504Z,82.50
2023-03-29T03:22:11.953Z,90.40
2023-03-29T03:24:39.563Z,86.30
2023-03-29T03:27:08.611Z,87.70
2023-03-29T03:29:38.524Z,75.10
2023-03-29T03:32:06.298Z,85.80
2023-03-29T03:34:34.845Z,83.40
2023-03-29T03:37:02.434Z,77.60
2023-03-29T03:39:30.357Z,89.60
2023-03-29T03:41:58.015Z,155.50
2023-03-29T03:44:25.630Z,93.20
2023-03-29T03:46:53.277Z,92.10
2023-03-29T03:49:21.958Z,93.70
2023-03-29T03:51:51.033Z,106.10
2023-03-29T03:54:20.266Z,92.80
2023-03-29T03:56:48.245Z,81.70
2023-03-29T03:59:15.933Z,73.80
2023-03-29T04:01:43.700Z,84.20
2023-03-29T04:04:12.087Z,66.90
2023-03-29T04:06:41.702Z,75.70
2023-03-29T04:09:11.114Z,73.80
2023-03-29T04:11:38.795Z,59.30
2023-03-29T04:14:06.385Z,71.20
2023-03-29T04:16:33.963Z,67.80
2023-03-29T04:19:01.716Z,126.20
2023-03-29T04:21:29.464Z,99.80
2023-03-29T04:23:57.127Z,67.90
2023-03-29T04:26:24.960Z,64.40
2023-03-29T04:28:52.657Z,67.00
2023-03-29T04:31:20.482Z,46.60
2023-03-29T04:33:48.178Z,51.50
2023-03-29T04:36:16.073Z,72.70
2023-03-29T04:38:47.395Z,70.10
2023-03-29T04:41:15.599Z,81.20
2023-03-29T04:43:46.865Z,78.30
2023-03-29T04:46:14.972Z,101.60
2023-03-29T04:48:42.666Z,99.60
2023-03-29T04:51:10.333Z,95.30
2023-03-29T04:53:38.085Z,86.00
2023-03-29T04:56:06.208Z,81.90
2023-03-29T04:58:33.830Z,79.50
2023-03-29T05:01:01.951Z,196.40
2023-03-29T05:03:29.823Z,157.00
2023-03-29T05:06:06.932Z,119.70
2023-03-29T05:08:39.141Z,97.90
2023-03-29T05:11:07.844Z,85.40
2023-03-29T05:13:35.464Z,80.80
2023-03-29T05:16:04.360Z,72.40
2023-03-29T05:18:32.142Z,74.30
2023-03-29T05:21:00.201Z,65.60
2023-03-29T05:23:28.886Z,60.80
2023-03-29T05:25:56.845Z,68.20
2023-03-29T05:28:24.513Z,64.90
2023-03-29T05:31:04.465Z,63.90
2023-03-29T05:33:32.593Z,62.20
2023-03-29T05:36:05.203Z,56.60
2023-03-29T05:38:33.037Z,66.60
2023-03-29T05:41:01.175Z,67.00
2023-03-29T05:43:29.017Z,65.50
2023-03-29T05:45:56.681Z,64.00
2023-03-29T05:48:24.595Z,76.00
2023-03-29T05:50:53.612Z,89.90
2023-03-29T05:53:22.536Z,94.00
2023-03-29T05:55:50.355Z,96.80
2023-03-29T05:58:20.293Z,87.30
2023-03-29T06:00:49.666Z,208.80
2023-03-29T06:03:23.746Z,172.60
2023-03-29T06:05:59.383Z,98.10
2023-03-29T06:08:27.756Z,38.50
2023-03-29T06:11:04.924Z,35.30
2023-03-29T06:13:34.116Z,31.80
2023-03-29T06:16:01.729Z,41.00
2023-03-29T06:18:29.355Z,26.70
2023-03-29T06:20:56.991Z,28.50
2023-03-29T06:23:24.996Z,74.10
2023-03-29T06:25:52.734Z,44.80
2023-03-29T06:28:20.522Z,28.10
2023-03-29T06:30:48.379Z,35.30
2023-03-29T06:33:17.082Z,21.00
2023-03-29T06:35:47.210Z,18.00
2023-03-29T06:38:15.323Z,25.40
2023-03-29T06:40:44.687Z,17.20
2023-03-29T06:43:13.046Z,15.60
2023-03-29T06:45:40.719Z,26.90
2023-03-29T06:48:08.669Z,20.80
2023-03-29T06:50:36.692Z,21.90
2023-03-29T06:53:04.429Z,22.70
2023-03-29T06:55:32.170Z,16.40
2023-03-29T06:58:02.463Z,15.00
2023-03-29T07:00:30.626Z,20.20
2023-03-29T07:02:58.729Z,18.20
2023-03-29T07:05:27.298Z,20.60
2023-03-29T07:08:00.469Z,20.70
2023-03-29T07:13:00.883Z,18.10
2023-03-29T07:15:28.765Z,11.60
2023-03-29T07:17:57.653Z,15.50
2023-03-29T07:20:27.302Z,13.20
2023-03-29T07:22:55.050Z,15.50
2023-03-29T07:25:23.556Z,11.20
2023-03-29T07:27:52.144Z,13.10
2023-03-29T07:30:22.799Z,12.50
2023-03-29T07:32:51.115Z,12.70
2023-03-29T07:35:19.152Z,14.50
2023-03-29T07:37:47.599Z,16.50
2023-03-29T07:40:18.314Z,11.70
2023-03-29T07:42:46.230Z,12.40
2023-03-29T07:45:16.436Z,11.30
2023-03-29T07:47:44.693Z,22.60
2023-03-29T07:50:12.484Z,19.10
2023-03-29T07:52:40.286Z,14.80
2023-03-29T07:55:08.733Z,18.60
2023-03-29T07:57:36.566Z,11.00
2023-03-29T08:00:15.878Z,23.60
2023-03-29T08:05:13.718Z,23.80
2023-03-29T08:07:42.403Z,26.10
2023-03-29T08:10:18.177Z,27.50
2023-03-29T08:12:46.540Z,26.60
2023-03-29T08:15:14.408Z,25.80
2023-03-29T08:17:42.186Z,28.00
2023-03-29T08:20:12.142Z,15.10
2023-03-29T08:22:40.418Z,22.60
2023-03-29T08:25:08.926Z,17.20
2023-03-29T08:27:37.732Z,15.30
2023-03-29T08:30:07.825Z,12.30
2023-03-29T08:32:39.521Z,17.60
2023-03-29T08:35:09.652Z,13.30
2023-03-29T08:37:37.637Z,12.40
2023-03-29T08:40:06.191Z,8.10
2023-03-29T08:43:09.606Z,18.20
2023-03-29T08:46:00.389Z,12.60
2023-03-29T08:48:33.319Z,15.30
2023-03-29T08:51:18.215Z,12.00
2023-03-29T08:53:48.738Z,10.20
2023-03-29T08:56:20.369Z,12.40
2023-03-29T08:58:48.172Z,13.60
2023-03-29T09:01:15.992Z,24.20
2023-03-29T09:04:05.102Z,7.70
2023-03-29T09:06:33.808Z,15.70
2023-03-29T09:09:01.748Z,9.40
2023-03-29T09:11:49.037Z,9.40
2023-03-29T09:14:27.633Z,9.40
2023-03-29T09:17:05.265Z,10.80
2023-03-29T09:19:38.894Z,9.20
2023-03-29T09:22:41.691Z,5.90
2023-03-29T09:25:21.370Z,8.90
2023-03-29T09:28:06.096Z,14.50
2023-03-29T09:30:59.246Z,7.00
2023-03-29T09:33:29.195Z,7.20
2023-03-29T09:36:03.206Z,10.50
2023-03-29T09:38:32.031Z,6.40
2023-03-29T09:41:22.876Z,5.60
2023-03-29T09:43:51.166Z,9.50
2023-03-29T09:46:29.053Z,10.20
2023-03-29T09:48:57.307Z,9.30
2023-03-29T09:51:27.148Z,8.20
2023-03-29T09:53:56.605Z,9.30
2023-03-29T09:56:24.167Z,8.10
2023-03-29T09:58:51.794Z,5.70
2023-03-29T10:01:19.908Z,9.30
2023-03-29T10:03:49.699Z,9.80
2023-03-29T10:06:18.626Z,8.20
2023-03-29T10:08:50.721Z,6.00
2023-03-29T10:11:33.035Z,6.00
2023-03-29T10:14:05.098Z,9.30
2023-03-29T10:16:41.345Z,7.00
2023-03-29T10:19:21.837Z,5.70
2023-03-29T10:21:51.637Z,7.90
2023-03-29T10:24:23.165Z,5.10
2023-03-29T10:26:55.491Z,6.10
2023-03-29T10:29:24.142Z,5.10
2023-03-29T10:31:52.195Z,5.70
2023-03-29T10:34:20.001Z,6.80
2023-03-29T10:36:57.495Z,8.00
2023-03-29T10:39:27.650Z,17.60
2023-03-29T10:41:55.402Z,7.30
2023-03-29T10:44:29.353Z,4.80
2023-03-29T10:47:19.665Z,6.10
2023-03-29T10:49:54.345Z,11.00
2023-03-29T10:52:23.613Z,10.60
2023-03-29T10:54:52.747Z,10.30
2023-03-29T10:57:32.565Z,16.60
2023-03-29T11:00:14.501Z,31.00
2023-03-29T11:03:20.977Z,12.30
2023-03-29T11:06:16.611Z,6.00
2023-03-29T11:09:01.193Z,11.10
2023-03-29T11:11:30.154Z,5.70
2023-03-29T11:14:13.945Z,5.20
2023-03-29T11:16:52.647Z,16.60
2023-03-29T11:22:49.621Z,9.90
2023-03-29T11:25:41.961Z,12.10
2023-03-29T11:28:15.966Z,15.00
2023-03-29T11:30:49.952Z,14.40
2023-03-29T11:33:17.678Z,20.70
2023-03-29T11:35:51.917Z,10.40
2023-03-29T11:38:43.996Z,7.60
2023-03-29T11:41:20.591Z,10.80
2023-03-29T11:44:11.976Z,7.90
2023-03-29T11:46:42.762Z,8.40
2023-03-29T11:49:23.445Z,8.60
2023-03-29T11:52:04.526Z,15.20
2023-03-29T11:55:03.674Z,7.10
2023-03-29T11:57:32.146Z,8.10
2023-03-29T12:00:09.820Z,6.90
2023-03-29T12:02:50.724Z,6.50
2023-03-29T12:05:32.405Z,8.00
2023-03-29T12:08:13.784Z,5.40
2023-03-29T12:10:44.195Z,18.70
2023-03-29T12:13:17.238Z,17.60
2023-03-29T12:15:48.353Z,9.60
2023-03-29T12:18:22.319Z,4.60
2023-03-29T12:20:53.597Z,5.30
2023-03-29T12:23:21.532Z,6.90
2023-03-29T12:26:04.664Z,7.40
2023-03-29T12:29:07.364Z,6.30
2023-03-29T12:31:44.831Z,4.60
2023-03-29T12:34:50.319Z,6.50
2023-03-29T12:37:27.310Z,6.70
2023-03-29T12:40:15.671Z,4.20
2023-03-29T12:42:58.723Z,4.90
2023-03-29T12:45:39.207Z,6.00
2023-03-29T12:48:07.487Z,5.90
2023-03-29T12:50:45.990Z,5.80
2023-03-29T12:53:36.102Z,3.80
2023-03-29T12:56:04.382Z,7.10
2023-03-29T12:58:53.659Z,6.80
2023-03-29T13:01:23.653Z,6.00
2023-03-29T13:04:00.589Z,5.60
2023-03-29T13:06:32.921Z,8.50
2023-03-29T13:09:30.781Z,9.00
2023-03-29T13:12:10.828Z,56.70
2023-03-29T13:14:43.174Z,15.60
2023-03-29T13:17:24.906Z,24.10
2023-03-29T13:20:03.924Z,21.50
2023-03-29T13:22:53.835Z,14.30
2023-03-29T13:25:32.141Z,15.40
2023-03-29T13:28:06.123Z,83.70
2023-03-29T13:30:52.918Z,52.70
2023-03-29T13:33:52.661Z,25.90
2023-03-29T13:36:27.494Z,63.60
2023-03-29T13:38:55.560Z,15.60
2023-03-29T13:41:32.352Z,8.90
2023-03-29T13:44:00.481Z,63.80
2023-03-29T13:46:40.989Z,198.00
2023-03-29T13:49:23.922Z,180.90
2023-03-29T13:51:54.755Z,202.40
2023-03-29T13:54:32.339Z,25.60
2023-03-29T13:57:11.223Z,18.20
2023-03-29T13:59:47.854Z,39.70
2023-03-29T14:02:22.851Z,22.90
2023-03-29T14:04:51.371Z,24.30
2023-03-29T14:07:20.326Z,31.10
2023-03-29T14:09:49.824Z,7.00
2023-03-29T14:12:17.666Z,15.50
2023-03-29T14:14:55.990Z,13.70
2023-03-29T14:17:26.871Z,9.10
2023-03-29T14:19:57.925Z,10.00
2023-03-29T14:22:30.382Z,22.80
2023-03-29T14:25:01.488Z,9.70
2023-03-29T14:27:31.023Z,9.50
2023-03-29T14:29:59.036Z,5.50
2023-03-29T14:32:31.009Z,10.60
2023-03-29T14:35:00.150Z,33.80
2023-03-29T14:37:29.043Z,27.40
2023-03-29T14:39:57.018Z,20.90
2023-03-29T14:42:26.737Z,10.80
2023-03-29T14:45:01.671Z,22.40
2023-03-29T14:47:30.732Z,25.20
2023-03-29T14:50:00.918Z,25.30
2023-03-29T14:52:29.214Z,21.10
2023-03-29T14:55:01.959Z,12.00
2023-03-29T14:57:34.186Z,14.70
2023-03-29T15:00:08.975Z,11.10
2023-03-29T15:02:36.869Z,17.70
2023-03-29T15:05:07.649Z,13.80
2023-03-29T15:07:36.527Z,12.70
2023-03-29T15:10:05.569Z,11.90
2023-03-29T15:12:33.353Z,8.70
2023-03-29T15:15:00.997Z,7.50
2023-03-29T15:17:49.533Z,9.20
2023-03-29T15:20:24.372Z,9.90
2023-03-29T15:22:53.010Z,22.10
2023-03-29T15:25:20.960Z,9.60
2023-03-29T15:27:57.557Z,67.80
2023-03-29T15:30:36.688Z,16.20
2023-03-29T15:33:15.339Z,22.30
2023-03-29T15:38:12.646Z,175.90
2023-03-29T15:40:40.491Z,35.40
2023-03-29T15:43:08.169Z,24.30
2023-03-29T15:45:36.153Z,28.80
2023-03-29T15:48:13.177Z,78.70
2023-03-29T15:50:40.828Z,43.50
2023-03-29T15:53:15.047Z,10.80
2023-03-29T15:55:45.398Z,11.90
2023-03-29T15:58:16.889Z,18.90
2023-03-29T16:00:47.862Z,42.10
2023-03-29T16:03:16.274Z,14.60
2023-03-29T16:05:44.430Z,8.20
2023-03-29T16:08:12.717Z,15.70
2023-03-29T16:10:41.239Z,19.00
2023-03-29T16:13:10.978Z,26.40
2023-03-29T16:15:38.732Z,14.60
2023-03-29T16:18:06.429Z,19.60
2023-03-29T16:20:34.345Z,14.40
2023-03-29T16:23:08.903Z,18.30
2023-03-29T16:25:38.409Z,26.30
2023-03-29T16:28:07.872Z,15.20
2023-03-29T16:30:36.213Z,18.10
2023-03-29T16:33:08.115Z,17.70
2023-03-29T16:35:37.973Z,18.10
2023-03-29T16:38:06.442Z,13.10
2023-03-29T16:40:34.742Z,15.70
2023-03-29T16:43:03.312Z,14.40
2023-03-29T16:45:31.062Z,12.20
2023-03-29T16:47:58.733Z,11.10
2023-03-29T16:50:26.581Z,15.00
2023-03-29T16:52:54.550Z,14.60
2023-03-29T16:55:22.225Z,18.80
2023-03-29T16:57:51.052Z,15.40
2023-03-29T17:00:20.289Z,12.50
2023-03-29T17:02:51.016Z,17.10
2023-03-29T17:05:19.037Z,18.80
2023-03-29T17:07:46.962Z,11.20
2023-03-29T17:10:14.595Z,14.00
2023-03-29T17:12:42.635Z,12.80
2023-03-29T17:15:10.496Z,10.30
2023-03-29T17:17:38.272Z,13.10
2023-03-29T17:20:08.587Z,12.60
2023-03-29T17:22:36.583Z,11.60
2023-03-29T17:25:07.200Z,15.60
2023-03-29T17:27:35.659Z,15.20
2023-03-29T17:30:05.140Z,13.00
2023-03-29T17:32:32.798Z,21.10
2023-03-29T17:35:00.816Z,24.00
2023-03-29T17:37:28.928Z,14.30
2023-03-29T17:39:56.711Z,17.40
2023-03-29T17:42:24.713Z,17.80
2023-03-29T17:44:52.677Z,16.50
2023-03-29T17:47:20.573Z,16.40
2023-03-29T17:49:48.446Z,14.90
2023-03-29T17:52:16.292Z,9.20
2023-03-29T17:54:44.192Z,10.40
2023-03-29T17:57:12.372Z,15.80
2023-03-29T17:59:40.446Z,11.00
2023-03-29T18:02:14.340Z,16.00
2023-03-29T18:04:42.628Z,9.90
2023-03-29T18:07:10.723Z,12.70
2023-03-29T18:09:39.345Z,17.50
2023-03-29T18:12:08.558Z,12.30
2023-03-29T18:14:36.732Z,17.90
2023-03-29T18:17:05.202Z,14.80
2023-03-29T18:19:33.515Z,12.40
2023-03-29T18:22:01.788Z,12.40
2023-03-29T18:24:30.688Z,13.40
2023-03-29T18:26:59.071Z,16.50
2023-03-29T18:29:27.193Z,15.20
2023-03-29T18:31:55.209Z,17.50
2023-03-29T18:34:23.005Z,16.10
2023-03-29T18:36:50.673Z,17.20
2023-03-29T18:39:18.816Z,10.80
2023-03-29T18:41:46.665Z,10.80
2023-03-29T18:44:17.774Z,16.60
2023-03-29T18:46:45.533Z,19.60
2023-03-29T18:49:13.449Z,18.70
2023-03-29T18:51:42.186Z,16.20
2023-03-29T18:54:09.964Z,27.40
2023-03-29T18:56:37.805Z,25.70
2023-03-29T18:59:06.390Z,24.40
2023-03-29T19:01:34.746Z,25.20
2023-03-29T19:04:02.648Z,17.60
2023-03-29T19:06:30.491Z,20.90
2023-03-29T19:09:02.353Z,20.40
2023-03-29T19:11:30.586Z,18.80
2023-03-29T19:13:58.195Z,15.30
2023-03-29T19:16:27.565Z,17.90
2023-03-29T19:18:55.417Z,21.50
2023-03-29T19:21:23.009Z,20.30
2023-03-29T19:23:53.175Z,20.30
2023-03-29T19:26:21.732Z,18.30
2023-03-29T19:28:49.438Z,16.40
2023-03-29T19:31:17.123Z,19.30
2023-03-29T19:33:45.977Z,20.70
2023-03-29T19:36:13.668Z,20.40
2023-03-29T19:38:41.910Z,19.40
2023-03-29T19:41:09.498Z,22.40
2023-03-29T19:43:37.093Z,29.20
2023-03-29T19:46:07.342Z,26.00
2023-03-29T19:48:34.981Z,46.90
2023-03-29T19:51:03.382Z,21.70
2023-03-29T19:53:31.840Z,29.10
2023-03-29T19:55:59.705Z,44.20
2023-03-29T19:58:27.659Z,35.00
2023-03-29T20:00:58.246Z,46.40
2023-03-29T20:03:28.269Z,85.00
2023-03-29T20:05:56.612Z,51.70
2023-03-29T20:08:24.832Z,47.90
2023-03-29T20:11:04.958Z,45.00
2023-03-29T20:13:38.582Z,31.50
2023-03-29T20:16:14.461Z,44.20
2023-03-29T20:18:44.832Z,41.20
2023-03-29T20:21:16.789Z,28.80
2023-03-29T20:23:44.889Z,25.30
2023-03-29T20:26:12.517Z,36.80
2023-03-29T20:28:40.266Z,33.60
2023-03-29T20:31:10.535Z,32.30
2023-03-29T20:33:39.116Z,25.80
2023-03-29T20:36:08.500Z,28.80
2023-03-29T20:38:36.330Z,32.00
2023-03-29T20:41:05.136Z,27.80
2023-03-29T20:43:37.778Z,30.00
2023-03-29T20:46:14.444Z,28.70
2023-03-29T20:48:54.512Z,24.70
2023-03-29T20:51:28.083Z,36.00
2023-03-29T20:54:05.116Z,17.10
2023-03-29T20:56:39.017Z,28.60
2023-03-29T20:59:07.195Z,16.90
2023-03-29T21:01:35.134Z,30.00
2023-03-29T21:04:03.059Z,24.80
2023-03-29T21:06:31.652Z,27.90
2023-03-29T21:08:59.236Z,25.50
2023-03-29T21:11:27.819Z,29.50
2023-03-29T21:13:55.443Z,26.10
2023-03-29T21:16:25.377Z,30.00
2023-03-29T21:18:53.289Z,39.10
2023-03-29T21:21:22.725Z,30.00
2023-03-29T21:23:50.596Z,30.00
2023-03-29T21:26:18.390Z,18.70
2023-03-29T21:28:48.555Z,24.30
2023-03-29T21:31:16.449Z,28.30
2023-03-29T21:33:44.179Z,19.70
2023-03-29T21:36:12.405Z,22.50
2023-03-29T21:38:40.485Z,23.30
2023-03-29T21:41:12.091Z,30.90
2023-03-29T21:43:40.073Z,24.90
2023-03-29T21:46:08.005Z,31.40
2023-03-29T21:48:36.359Z,20.80
2023-03-29T21:51:04.583Z,21.30
2023-03-29T21:53:32.408Z,14.40
2023-03-29T21:56:00.373Z,14.20
2023-03-29T21:58:28.273Z,17.40
2023-03-29T22:00:56.718Z,22.00
2023-03-29T22:03:24.395Z,19.40
2023-03-29T22:05:59.545Z,20.70
2023-03-29T22:08:27.184Z,22.00
2023-03-29T22:10:58.027Z,14.80
2023-03-29T22:13:27.508Z,18.50
2023-03-29T22:15:59.419Z,19.70
2023-03-29T22:18:28.049Z,19.00
2023-03-29T22:20:56.661Z,12.70
2023-03-29T22:23:24.939Z,13.80
2023-03-29T22:25:52.674Z,12.50
2023-03-29T22:28:20.521Z,13.40
2023-03-29T22:30:48.086Z,9.30
2023-03-29T22:33:15.958Z,9.60
2023-03-29T22:35:43.567Z,10.10
2023-03-29T22:38:11.194Z,11.30
2023-03-29T22:40:40.770Z,12.10
2023-03-29T22:43:08.342Z,12.30
2023-03-29T22:45:36.343Z,11.60
2023-03-29T22:48:04.129Z,12.10
2023-03-29T22:50:31.701Z,13.00
2023-03-29T22:52:59.291Z,12.30
2023-03-29T22:55:27.065Z,16.00
2023-03-29T22:57:54.639Z,21.70
2023-03-29T23:00:22.466Z,16.40
2023-03-29T23:02:50.027Z,14.60
2023-03-29T23:05:17.633Z,10.10
2023-03-29T23:07:45.467Z,11.50
2023-03-29T23:10:13.046Z,6.30
2023-03-29T23:12:42.947Z,10.60
2023-03-29T23:15:11.513Z,7.60
2023-03-29T23:17:39.161Z,9.90
2023-03-29T23:20:08.794Z,12.00
2023-03-29T23:22:36.655Z,15.90
2023-03-29T23:25:04.434Z,13.60
2023-03-29T23:27:32.850Z,15.60
2023-03-29T23:30:01.606Z,8.30
2023-03-29T23:32:29.273Z,11.10
2023-03-29T23:34:56.964Z,10.40
2023-03-29T23:37:24.974Z,8.60
2023-03-29T23:39:52.741Z,7.60
2023-03-29T23:42:21.143Z,7.50
2023-03-29T23:44:48.840Z,8.50
2023-03-29T23:47:16.669Z,4.60
2023-03-29T23:49:45.405Z,7.50
2023-03-29T23:52:13.236Z,8.70
2023-03-29T23:54:40.845Z,8.90
2023-03-29T23:57:08.420Z,8.00
2023-03-29T23:59:37.916Z,7.50
